sensor_id;sensor_type;location;lat;lon;timestamp;P1;durP1;ratioP1;P2;durP2;ratioP2
61915;SDS011;47868;51.326;6.550;2022-08-11T00:00:33;5.35;;;2.85;;
61915;SDS011;47868;51.326;6.550;2022-08-11T00:03:06;4.03;;;2.70;;
61915;SDS011;47868;51.326;6.550;2022-08-11T00:05:38;6.93;;;2.80;;
61915;SDS011;47868;51.326;6.550;2022-08-11T00:08:23;5.43;;;2.75;;
61915;SDS011;47868;51.326;6.550;2022-08-11T00:10:52;8.60;;;2.78;;
61915;SDS011;47868;51.326;6.550;2022-08-11T00:13:19;6.70;;;2.72;;
61915;SDS011;47868;51.326;6.550;2022-08-11T00:15:46;6.70;;;2.78;;
61915;SDS011;47868;51.326;6.550;2022-08-11T00:18:12;7.63;;;2.70;;
61915;SDS011;47868;51.326;6.550;2022-08-11T00:20:41;8.02;;;2.45;;
61915;SDS011;47868;51.326;6.550;2022-08-11T00:23:10;4.03;;;2.80;;
61915;SDS011;47868;51.326;6.550;2022-08-11T00:25:38;4.75;;;2.22;;
61915;SDS011;47868;51.326;6.550;2022-08-11T00:28:22;8.98;;;2.60;;
61915;SDS011;47868;51.326;6.550;2022-08-11T00:30:50;6.90;;;2.40;;
61915;SDS011;47868;51.326;6.550;2022-08-11T00:33:17;6.28;;;2.90;;
61915;SDS011;47868;51.326;6.550;2022-08-11T00:35:46;6.50;;;2.47;;
61915;SDS011;47868;51.326;6.550;2022-08-11T00:38:14;3.30;;;2.30;;
61915;SDS011;47868;51.326;6.550;2022-08-11T00:40:54;4.82;;;2.60;;
61915;SDS011;47868;51.326;6.550;2022-08-11T00:51:51;4.25;;;2.92;;
61915;SDS011;47868;51.326;6.550;2022-08-11T00:54:30;6.03;;;2.30;;
61915;SDS011;47868;51.326;6.550;2022-08-11T01:00:17;5.15;;;2.67;;
61915;SDS011;47868;51.326;6.550;2022-08-11T01:53:32;6.38;;;4.00;;
61915;SDS011;47868;51.326;6.550;2022-08-11T01:59:17;13.32;;;4.68;;
61915;SDS011;47868;51.326;6.550;2022-08-11T02:10:44;7.10;;;3.67;;
61915;SDS011;47868;51.326;6.550;2022-08-11T02:13:55;7.18;;;3.88;;
61915;SDS011;47868;51.326;6.550;2022-08-11T02:22:05;6.20;;;3.30;;
61915;SDS011;47868;51.326;6.550;2022-08-11T02:25:01;8.27;;;3.65;;
61915;SDS011;47868;51.326;6.550;2022-08-11T02:30:37;3.67;;;3.00;;
61915;SDS011;47868;51.326;6.550;2022-08-11T02:33:30;5.63;;;3.50;;
61915;SDS011;47868;51.326;6.550;2022-08-11T02:36:05;5.53;;;3.00;;
61915;SDS011;47868;51.326;6.550;2022-08-11T02:39:27;4.30;;;3.08;;
61915;SDS011;47868;51.326;6.550;2022-08-11T02:41:56;4.18;;;2.75;;
61915;SDS011;47868;51.326;6.550;2022-08-11T02:51:00;6.85;;;3.00;;
61915;SDS011;47868;51.326;6.550;2022-08-11T03:02:13;4.75;;;3.10;;
61915;SDS011;47868;51.326;6.550;2022-08-11T03:13:15;5.97;;;3.40;;
61915;SDS011;47868;51.326;6.550;2022-08-11T03:29:29;4.47;;;3.00;;
61915;SDS011;47868;51.326;6.550;2022-08-11T03:32:06;7.65;;;3.33;;
61915;SDS011;47868;51.326;6.550;2022-08-11T03:34:53;6.95;;;3.22;;
61915;SDS011;47868;51.326;6.550;2022-08-11T03:46:26;4.80;;;3.58;;
61915;SDS011;47868;51.326;6.550;2022-08-11T03:49:27;8.82;;;3.80;;
61915;SDS011;47868;51.326;6.550;2022-08-11T03:58:37;5.95;;;3.33;;
61915;SDS011;47868;51.326;6.550;2022-08-11T04:15:12;7.10;;;3.55;;
61915;SDS011;47868;51.326;6.550;2022-08-11T04:23:42;11.15;;;3.63;;
61915;SDS011;47868;51.326;6.550;2022-08-11T04:34:41;7.03;;;3.38;;
61915;SDS011;47868;51.326;6.550;2022-08-11T04:49:12;9.20;;;3.70;;
61915;SDS011;47868;51.326;6.550;2022-08-11T05:12:50;12.23;;;3.85;;
61915;SDS011;47868;51.326;6.550;2022-08-11T05:15:40;12.48;;;4.55;;
61915;SDS011;47868;51.326;6.550;2022-08-11T05:18:51;8.85;;;4.13;;
61915;SDS011;47868;51.326;6.550;2022-08-11T05:21:37;12.82;;;4.20;;
61915;SDS011;47868;51.326;6.550;2022-08-11T05:24:36;9.80;;;4.18;;
61915;SDS011;47868;51.326;6.550;2022-08-11T05:27:26;7.13;;;4.13;;
61915;SDS011;47868;51.326;6.550;2022-08-11T05:30:17;7.60;;;4.40;;
61915;SDS011;47868;51.326;6.550;2022-08-11T05:33:02;19.77;;;4.60;;
61915;SDS011;47868;51.326;6.550;2022-08-11T05:35:54;6.40;;;4.13;;
61915;SDS011;47868;51.326;6.550;2022-08-11T05:38:26;11.63;;;4.40;;
61915;SDS011;47868;51.326;6.550;2022-08-11T05:41:12;10.02;;;4.53;;
61915;SDS011;47868;51.326;6.550;2022-08-11T05:43:58;11.68;;;4.22;;
61915;SDS011;47868;51.326;6.550;2022-08-11T05:46:44;7.53;;;4.20;;
61915;SDS011;47868;51.326;6.550;2022-08-11T05:49:29;16.17;;;4.30;;
61915;SDS011;47868;51.326;6.550;2022-08-11T05:52:15;7.10;;;4.10;;
61915;SDS011;47868;51.326;6.550;2022-08-11T05:55:03;8.57;;;4.15;;
61915;SDS011;47868;51.326;6.550;2022-08-11T05:57:53;24.55;;;6.13;;
61915;SDS011;47868;51.326;6.550;2022-08-11T06:00:24;10.43;;;4.57;;
61915;SDS011;47868;51.326;6.550;2022-08-11T06:02:52;13.30;;;4.60;;
61915;SDS011;47868;51.326;6.550;2022-08-11T06:05:19;15.55;;;4.50;;
61915;SDS011;47868;51.326;6.550;2022-08-11T06:07:46;12.27;;;4.70;;
61915;SDS011;47868;51.326;6.550;2022-08-11T06:10:13;11.57;;;4.78;;
61915;SDS011;47868;51.326;6.550;2022-08-11T06:12:58;10.45;;;4.55;;
61915;SDS011;47868;51.326;6.550;2022-08-11T06:15:26;7.53;;;4.55;;
61915;SDS011;47868;51.326;6.550;2022-08-11T06:17:54;10.38;;;4.90;;
61915;SDS011;47868;51.326;6.550;2022-08-11T06:20:21;13.43;;;5.25;;
61915;SDS011;47868;51.326;6.550;2022-08-11T06:23:01;13.30;;;4.82;;
61915;SDS011;47868;51.326;6.550;2022-08-11T06:25:30;12.70;;;4.88;;
61915;SDS011;47868;51.326;6.550;2022-08-11T06:27:57;11.18;;;4.30;;
61915;SDS011;47868;51.326;6.550;2022-08-11T06:33:00;11.27;;;5.00;;
61915;SDS011;47868;51.326;6.550;2022-08-11T06:38:22;7.22;;;4.40;;
61915;SDS011;47868;51.326;6.550;2022-08-11T06:41:06;11.68;;;3.92;;
61915;SDS011;47868;51.326;6.550;2022-08-11T06:46:41;5.28;;;3.92;;
61915;SDS011;47868;51.326;6.550;2022-08-11T06:49:11;13.02;;;3.90;;
61915;SDS011;47868;51.326;6.550;2022-08-11T06:51:58;8.02;;;3.90;;
61915;SDS011;47868;51.326;6.550;2022-08-11T06:54:25;12.32;;;4.38;;
61915;SDS011;47868;51.326;6.550;2022-08-11T06:56:56;10.80;;;3.60;;
61915;SDS011;47868;51.326;6.550;2022-08-11T06:59:43;10.10;;;3.97;;
61915;SDS011;47868;51.326;6.550;2022-08-11T07:13:33;8.90;;;3.42;;
61915;SDS011;47868;51.326;6.550;2022-08-11T07:16:22;5.63;;;3.50;;
61915;SDS011;47868;51.326;6.550;2022-08-11T07:18:54;5.20;;;3.50;;
61915;SDS011;47868;51.326;6.550;2022-08-11T07:21:46;8.48;;;3.50;;
61915;SDS011;47868;51.326;6.550;2022-08-11T07:24:38;8.82;;;3.40;;
61915;SDS011;47868;51.326;6.550;2022-08-11T07:27:27;6.20;;;3.72;;
61915;SDS011;47868;51.326;6.550;2022-08-11T07:30:18;4.22;;;3.40;;
61915;SDS011;47868;51.326;6.550;2022-08-11T07:32:47;7.35;;;3.53;;
61915;SDS011;47868;51.326;6.550;2022-08-11T07:35:17;6.10;;;3.33;;
61915;SDS011;47868;51.326;6.550;2022-08-11T07:37:52;7.13;;;3.25;;
61915;SDS011;47868;51.326;6.550;2022-08-11T07:40:23;10.48;;;4.00;;
61915;SDS011;47868;51.326;6.550;2022-08-11T07:42:49;8.80;;;3.45;;
61915;SDS011;47868;51.326;6.550;2022-08-11T07:45:16;9.13;;;3.75;;
61915;SDS011;47868;51.326;6.550;2022-08-11T07:48:01;12.60;;;3.70;;
61915;SDS011;47868;51.326;6.550;2022-08-11T07:50:47;7.78;;;3.88;;
61915;SDS011;47868;51.326;6.550;2022-08-11T07:53:32;10.85;;;3.67;;
61915;SDS011;47868;51.326;6.550;2022-08-11T07:56:00;7.40;;;3.30;;
61915;SDS011;47868;51.326;6.550;2022-08-11T07:58:26;8.88;;;4.00;;
61915;SDS011;47868;51.326;6.550;2022-08-11T08:01:17;9.00;;;3.95;;
61915;SDS011;47868;51.326;6.550;2022-08-11T08:04:03;6.80;;;3.17;;
61915;SDS011;47868;51.326;6.550;2022-08-11T08:06:50;5.43;;;3.22;;
61915;SDS011;47868;51.326;6.550;2022-08-11T08:09:35;9.05;;;3.50;;
61915;SDS011;47868;51.326;6.550;2022-08-11T08:12:21;3.33;;;2.92;;
61915;SDS011;47868;51.326;6.550;2022-08-11T08:15:07;10.55;;;3.42;;
61915;SDS011;47868;51.326;6.550;2022-08-11T08:17:54;6.70;;;3.28;;
61915;SDS011;47868;51.326;6.550;2022-08-11T08:21:04;7.40;;;3.53;;
61915;SDS011;47868;51.326;6.550;2022-08-11T08:23:14;6.65;;;3.40;;
61915;SDS011;47868;51.326;6.550;2022-08-11T08:25:42;8.73;;;3.60;;
61915;SDS011;47868;51.326;6.550;2022-08-11T08:28:10;8.90;;;3.55;;
61915;SDS011;47868;51.326;6.550;2022-08-11T08:30:39;8.02;;;3.17;;
61915;SDS011;47868;51.326;6.550;2022-08-11T08:33:25;4.97;;;3.17;;
61915;SDS011;47868;51.326;6.550;2022-08-11T08:36:03;4.28;;;3.20;;
61915;SDS011;47868;51.326;6.550;2022-08-11T08:38:56;5.10;;;3.20;;
61915;SDS011;47868;51.326;6.550;2022-08-11T08:41:24;8.52;;;3.28;;
61915;SDS011;47868;51.326;6.550;2022-08-11T08:43:54;4.18;;;3.00;;
61915;SDS011;47868;51.326;6.550;2022-08-11T08:46:32;6.88;;;3.55;;
61915;SDS011;47868;51.326;6.550;2022-08-11T08:49:01;8.40;;;3.45;;
61915;SDS011;47868;51.326;6.550;2022-08-11T08:51:28;6.63;;;3.20;;
61915;SDS011;47868;51.326;6.550;2022-08-11T08:54:03;6.65;;;3.35;;
61915;SDS011;47868;51.326;6.550;2022-08-11T08:56:31;6.93;;;3.13;;
61915;SDS011;47868;51.326;6.550;2022-08-11T08:58:58;4.55;;;3.30;;
61915;SDS011;47868;51.326;6.550;2022-08-11T09:01:28;10.52;;;3.47;;
61915;SDS011;47868;51.326;6.550;2022-08-11T09:03:59;7.97;;;3.63;;
61915;SDS011;47868;51.326;6.550;2022-08-11T09:06:29;4.85;;;3.15;;
61915;SDS011;47868;51.326;6.550;2022-08-11T09:08:57;8.38;;;3.17;;
61915;SDS011;47868;51.326;6.550;2022-08-11T09:11:23;5.75;;;2.90;;
61915;SDS011;47868;51.326;6.550;2022-08-11T09:14:08;7.43;;;2.80;;
61915;SDS011;47868;51.326;6.550;2022-08-11T09:16:35;5.32;;;2.80;;
61915;SDS011;47868;51.326;6.550;2022-08-11T09:19:03;7.20;;;2.63;;
61915;SDS011;47868;51.326;6.550;2022-08-11T09:21:29;7.15;;;3.05;;
61915;SDS011;47868;51.326;6.550;2022-08-11T09:23:56;10.98;;;3.20;;
61915;SDS011;47868;51.326;6.550;2022-08-11T09:26:42;6.80;;;2.80;;
61915;SDS011;47868;51.326;6.550;2022-08-11T09:29:25;4.80;;;3.03;;
61915;SDS011;47868;51.326;6.550;2022-08-11T09:31:55;8.38;;;3.05;;
61915;SDS011;47868;51.326;6.550;2022-08-11T09:34:22;9.90;;;3.13;;
61915;SDS011;47868;51.326;6.550;2022-08-11T09:36:50;5.47;;;3.08;;
61915;SDS011;47868;51.326;6.550;2022-08-11T09:39:36;7.63;;;2.90;;
61915;SDS011;47868;51.326;6.550;2022-08-11T09:42:23;8.02;;;3.03;;
61915;SDS011;47868;51.326;6.550;2022-08-11T09:45:12;3.35;;;2.30;;
61915;SDS011;47868;51.326;6.550;2022-08-11T09:47:40;4.40;;;2.58;;
61915;SDS011;47868;51.326;6.550;2022-08-11T09:50:08;6.50;;;2.70;;
61915;SDS011;47868;51.326;6.550;2022-08-11T09:52:36;8.48;;;2.85;;
61915;SDS011;47868;51.326;6.550;2022-08-11T09:55:04;10.18;;;2.50;;
61915;SDS011;47868;51.326;6.550;2022-08-11T09:57:34;7.60;;;2.95;;
61915;SDS011;47868;51.326;6.550;2022-08-11T10:00:26;12.10;;;2.80;;
61915;SDS011;47868;51.326;6.550;2022-08-11T10:02:56;6.65;;;2.80;;
61915;SDS011;47868;51.326;6.550;2022-08-11T10:05:26;5.57;;;2.40;;
61915;SDS011;47868;51.326;6.550;2022-08-11T10:08:12;7.78;;;2.30;;
61915;SDS011;47868;51.326;6.550;2022-08-11T10:10:41;5.93;;;2.50;;
61915;SDS011;47868;51.326;6.550;2022-08-11T10:13:16;6.70;;;2.88;;
61915;SDS011;47868;51.326;6.550;2022-08-11T10:15:45;3.92;;;2.30;;
61915;SDS011;47868;51.326;6.550;2022-08-11T10:18:13;5.35;;;2.45;;
61915;SDS011;47868;51.326;6.550;2022-08-11T10:21:02;4.65;;;2.65;;
61915;SDS011;47868;51.326;6.550;2022-08-11T10:23:35;4.35;;;2.63;;
61915;SDS011;47868;51.326;6.550;2022-08-11T10:26:22;4.68;;;2.35;;
61915;SDS011;47868;51.326;6.550;2022-08-11T10:29:08;3.15;;;2.33;;
61915;SDS011;47868;51.326;6.550;2022-08-11T10:31:57;9.82;;;3.17;;
61915;SDS011;47868;51.326;6.550;2022-08-11T10:34:42;2.72;;;2.53;;
61915;SDS011;47868;51.326;6.550;2022-08-11T10:37:10;7.22;;;2.80;;
61915;SDS011;47868;51.326;6.550;2022-08-11T10:39:38;2.42;;;2.22;;
61915;SDS011;47868;51.326;6.550;2022-08-11T10:42:04;2.33;;;2.17;;
61915;SDS011;47868;51.326;6.550;2022-08-11T10:44:50;8.82;;;2.83;;
61915;SDS011;47868;51.326;6.550;2022-08-11T10:47:18;4.38;;;2.42;;
61915;SDS011;47868;51.326;6.550;2022-08-11T10:50:08;6.55;;;2.58;;
61915;SDS011;47868;51.326;6.550;2022-08-11T10:52:55;4.43;;;2.40;;
61915;SDS011;47868;51.326;6.550;2022-08-11T10:55:41;4.47;;;2.00;;
61915;SDS011;47868;51.326;6.550;2022-08-11T10:58:28;6.05;;;2.50;;
61915;SDS011;47868;51.326;6.550;2022-08-11T11:03:52;5.07;;;2.78;;
61915;SDS011;47868;51.326;6.550;2022-08-11T11:09:12;15.55;;;3.00;;
61915;SDS011;47868;51.326;6.550;2022-08-11T11:11:53;3.75;;;2.38;;
61915;SDS011;47868;51.326;6.550;2022-08-11T11:14:41;6.55;;;2.60;;
61915;SDS011;47868;51.326;6.550;2022-08-11T11:18:14;8.13;;;2.80;;
61915;SDS011;47868;51.326;6.550;2022-08-11T11:22:55;8.63;;;2.88;;
61915;SDS011;47868;51.326;6.550;2022-08-11T11:25:29;7.60;;;3.25;;
61915;SDS011;47868;51.326;6.550;2022-08-11T11:31:03;8.98;;;3.13;;
61915;SDS011;47868;51.326;6.550;2022-08-11T11:36:39;3.00;;;2.38;;
61915;SDS011;47868;51.326;6.550;2022-08-11T11:39:18;3.83;;;2.67;;
61915;SDS011;47868;51.326;6.550;2022-08-11T11:41:47;3.22;;;2.40;;
61915;SDS011;47868;51.326;6.550;2022-08-11T11:44:16;9.45;;;3.00;;
61915;SDS011;47868;51.326;6.550;2022-08-11T11:46:45;3.35;;;2.35;;
61915;SDS011;47868;51.326;6.550;2022-08-11T11:49:11;7.50;;;2.47;;
61915;SDS011;47868;51.326;6.550;2022-08-11T11:51:39;6.32;;;2.38;;
61915;SDS011;47868;51.326;6.550;2022-08-11T11:54:05;6.38;;;2.50;;
61915;SDS011;47868;51.326;6.550;2022-08-11T11:56:32;5.38;;;2.40;;
61915;SDS011;47868;51.326;6.550;2022-08-11T11:58:58;6.88;;;2.28;;
61915;SDS011;47868;51.326;6.550;2022-08-11T12:01:42;10.93;;;2.78;;
61915;SDS011;47868;51.326;6.550;2022-08-11T12:04:10;5.68;;;2.75;;
61915;SDS011;47868;51.326;6.550;2022-08-11T12:06:38;3.92;;;2.55;;
61915;SDS011;47868;51.326;6.550;2022-08-11T12:09:04;6.07;;;2.60;;
61915;SDS011;47868;51.326;6.550;2022-08-11T12:11:30;5.72;;;2.70;;
61915;SDS011;47868;51.326;6.550;2022-08-11T12:14:17;5.75;;;2.90;;
61915;SDS011;47868;51.326;6.550;2022-08-11T12:16:44;9.05;;;2.90;;
61915;SDS011;47868;51.326;6.550;2022-08-11T12:19:13;9.70;;;2.90;;
61915;SDS011;47868;51.326;6.550;2022-08-11T12:21:41;3.85;;;2.60;;
61915;SDS011;47868;51.326;6.550;2022-08-11T12:24:27;6.68;;;2.50;;
61915;SDS011;47868;51.326;6.550;2022-08-11T12:27:12;6.45;;;2.65;;
61915;SDS011;47868;51.326;6.550;2022-08-11T12:29:49;9.77;;;2.88;;
61915;SDS011;47868;51.326;6.550;2022-08-11T12:32:17;4.45;;;2.90;;
61915;SDS011;47868;51.326;6.550;2022-08-11T12:34:45;8.70;;;2.58;;
61915;SDS011;47868;51.326;6.550;2022-08-11T12:37:11;4.38;;;2.50;;
61915;SDS011;47868;51.326;6.550;2022-08-11T12:39:46;7.55;;;2.67;;
61915;SDS011;47868;51.326;6.550;2022-08-11T12:42:33;8.57;;;2.70;;
61915;SDS011;47868;51.326;6.550;2022-08-11T12:45:21;7.80;;;2.67;;
61915;SDS011;47868;51.326;6.550;2022-08-11T12:47:58;4.35;;;2.47;;
61915;SDS011;47868;51.326;6.550;2022-08-11T12:50:50;4.03;;;2.33;;
61915;SDS011;47868;51.326;6.550;2022-08-11T12:53:36;6.40;;;2.45;;
61915;SDS011;47868;51.326;6.550;2022-08-11T12:56:07;5.75;;;2.53;;
61915;SDS011;47868;51.326;6.550;2022-08-11T12:58:52;7.55;;;2.45;;
61915;SDS011;47868;51.326;6.550;2022-08-11T13:01:39;7.72;;;2.60;;
61915;SDS011;47868;51.326;6.550;2022-08-11T13:04:24;6.40;;;2.30;;
61915;SDS011;47868;51.326;6.550;2022-08-11T13:07:10;7.30;;;2.20;;
61915;SDS011;47868;51.326;6.550;2022-08-11T13:09:37;5.35;;;2.40;;
61915;SDS011;47868;51.326;6.550;2022-08-11T13:12:04;6.50;;;2.53;;
61915;SDS011;47868;51.326;6.550;2022-08-11T13:14:49;4.68;;;2.10;;
61915;SDS011;47868;51.326;6.550;2022-08-11T13:17:16;2.42;;;2.10;;
61915;SDS011;47868;51.326;6.550;2022-08-11T13:19:45;6.47;;;2.05;;
61915;SDS011;47868;51.326;6.550;2022-08-11T13:22:14;7.53;;;1.92;;
61915;SDS011;47868;51.326;6.550;2022-08-11T13:24:43;4.20;;;2.40;;
61915;SDS011;47868;51.326;6.550;2022-08-11T13:27:10;3.33;;;2.00;;
61915;SDS011;47868;51.326;6.550;2022-08-11T13:29:37;4.07;;;2.00;;
61915;SDS011;47868;51.326;6.550;2022-08-11T13:32:05;6.50;;;2.20;;
61915;SDS011;47868;51.326;6.550;2022-08-11T13:34:32;6.25;;;2.33;;
61915;SDS011;47868;51.326;6.550;2022-08-11T13:37:05;6.72;;;2.42;;
61915;SDS011;47868;51.326;6.550;2022-08-11T13:39:33;4.22;;;2.20;;
61915;SDS011;47868;51.326;6.550;2022-08-11T13:42:01;6.70;;;2.45;;
61915;SDS011;47868;51.326;6.550;2022-08-11T13:44:30;6.75;;;2.30;;
61915;SDS011;47868;51.326;6.550;2022-08-11T13:47:00;5.68;;;1.90;;
61915;SDS011;47868;51.326;6.550;2022-08-11T13:49:31;4.95;;;2.35;;
61915;SDS011;47868;51.326;6.550;2022-08-11T13:52:01;7.07;;;2.20;;
61915;SDS011;47868;51.326;6.550;2022-08-11T13:54:34;11.00;;;2.30;;
61915;SDS011;47868;51.326;6.550;2022-08-11T13:57:06;7.22;;;2.10;;
61915;SDS011;47868;51.326;6.550;2022-08-11T13:59:36;6.57;;;2.35;;
61915;SDS011;47868;51.326;6.550;2022-08-11T14:02:07;6.45;;;1.88;;
61915;SDS011;47868;51.326;6.550;2022-08-11T14:04:39;4.20;;;2.10;;
61915;SDS011;47868;51.326;6.550;2022-08-11T14:07:38;7.97;;;2.33;;
61915;SDS011;47868;51.326;6.550;2022-08-11T14:10:11;5.60;;;2.40;;
61915;SDS011;47868;51.326;6.550;2022-08-11T14:12:40;3.28;;;2.10;;
61915;SDS011;47868;51.326;6.550;2022-08-11T14:15:33;5.22;;;1.90;;
61915;SDS011;47868;51.326;6.550;2022-08-11T14:18:04;4.03;;;1.85;;
61915;SDS011;47868;51.326;6.550;2022-08-11T14:20:33;4.63;;;2.30;;
61915;SDS011;47868;51.326;6.550;2022-08-11T14:23:25;6.47;;;2.38;;
61915;SDS011;47868;51.326;6.550;2022-08-11T14:25:53;7.78;;;2.47;;
61915;SDS011;47868;51.326;6.550;2022-08-11T14:28:38;9.52;;;2.30;;
61915;SDS011;47868;51.326;6.550;2022-08-11T14:31:05;5.45;;;2.60;;
61915;SDS011;47868;51.326;6.550;2022-08-11T14:33:32;4.18;;;2.30;;
61915;SDS011;47868;51.326;6.550;2022-08-11T14:36:00;7.18;;;2.25;;
61915;SDS011;47868;51.326;6.550;2022-08-11T14:38:30;4.30;;;2.45;;
61915;SDS011;47868;51.326;6.550;2022-08-11T14:40:58;9.73;;;2.90;;
61915;SDS011;47868;51.326;6.550;2022-08-11T14:43:44;6.40;;;2.85;;
61915;SDS011;47868;51.326;6.550;2022-08-11T14:46:30;7.38;;;2.50;;
61915;SDS011;47868;51.326;6.550;2022-08-11T14:49:16;6.68;;;2.88;;
61915;SDS011;47868;51.326;6.550;2022-08-11T14:51:43;6.97;;;2.70;;
61915;SDS011;47868;51.326;6.550;2022-08-11T14:54:11;3.67;;;2.30;;
61915;SDS011;47868;51.326;6.550;2022-08-11T14:56:56;3.50;;;2.35;;
61915;SDS011;47868;51.326;6.550;2022-08-11T14:59:22;4.18;;;2.53;;
61915;SDS011;47868;51.326;6.550;2022-08-11T15:01:48;5.18;;;2.53;;
61915;SDS011;47868;51.326;6.550;2022-08-11T15:04:33;6.47;;;2.67;;
61915;SDS011;47868;51.326;6.550;2022-08-11T15:06:59;2.60;;;2.30;;
61915;SDS011;47868;51.326;6.550;2022-08-11T15:09:25;7.38;;;2.40;;
61915;SDS011;47868;51.326;6.550;2022-08-11T15:11:51;5.65;;;2.30;;
61915;SDS011;47868;51.326;6.550;2022-08-11T15:14:33;11.90;;;2.25;;
61915;SDS011;47868;51.326;6.550;2022-08-11T15:17:20;8.48;;;2.50;;
61915;SDS011;47868;51.326;6.550;2022-08-11T15:19:46;6.28;;;2.50;;
61915;SDS011;47868;51.326;6.550;2022-08-11T15:22:33;7.22;;;2.30;;
61915;SDS011;47868;51.326;6.550;2022-08-11T15:25:17;4.78;;;2.17;;
61915;SDS011;47868;51.326;6.550;2022-08-11T15:27:47;6.10;;;2.22;;
61915;SDS011;47868;51.326;6.550;2022-08-11T15:30:33;6.10;;;2.38;;
61915;SDS011;47868;51.326;6.550;2022-08-11T15:33:19;4.90;;;2.20;;
61915;SDS011;47868;51.326;6.550;2022-08-11T15:36:06;6.78;;;2.05;;
61915;SDS011;47868;51.326;6.550;2022-08-11T15:39:03;3.45;;;2.40;;
61915;SDS011;47868;51.326;6.550;2022-08-11T15:44:58;2.83;;;1.88;;
61915;SDS011;47868;51.326;6.550;2022-08-11T15:47:47;2.28;;;1.90;;
61915;SDS011;47868;51.326;6.550;2022-08-11T15:50:21;2.97;;;1.95;;
61915;SDS011;47868;51.326;6.550;2022-08-11T15:53:01;3.60;;;1.90;;
61915;SDS011;47868;51.326;6.550;2022-08-11T15:55:31;6.60;;;2.15;;
61915;SDS011;47868;51.326;6.550;2022-08-11T15:58:00;5.10;;;2.08;;
61915;SDS011;47868;51.326;6.550;2022-08-11T16:00:46;6.70;;;2.00;;
61915;SDS011;47868;51.326;6.550;2022-08-11T16:03:34;5.57;;;2.40;;
61915;SDS011;47868;51.326;6.550;2022-08-11T16:06:22;8.63;;;2.30;;
61915;SDS011;47868;51.326;6.550;2022-08-11T16:08:50;9.88;;;3.13;;
61915;SDS011;47868;51.326;6.550;2022-08-11T16:11:20;4.07;;;2.53;;
61915;SDS011;47868;51.326;6.550;2022-08-11T16:13:47;3.95;;;2.40;;
61915;SDS011;47868;51.326;6.550;2022-08-11T16:16:33;2.97;;;2.65;;
61915;SDS011;47868;51.326;6.550;2022-08-11T16:19:02;3.83;;;2.67;;
61915;SDS011;47868;51.326;6.550;2022-08-11T16:21:30;5.40;;;2.75;;
61915;SDS011;47868;51.326;6.550;2022-08-11T16:23:57;3.58;;;2.50;;
61915;SDS011;47868;51.326;6.550;2022-08-11T16:26:24;4.32;;;2.10;;
61915;SDS011;47868;51.326;6.550;2022-08-11T16:28:53;2.40;;;2.22;;
61915;SDS011;47868;51.326;6.550;2022-08-11T16:31:20;2.88;;;2.35;;
61915;SDS011;47868;51.326;6.550;2022-08-11T16:33:47;5.25;;;2.88;;
61915;SDS011;47868;51.326;6.550;2022-08-11T16:36:15;6.07;;;2.47;;
61915;SDS011;47868;51.326;6.550;2022-08-11T16:38:54;4.45;;;2.60;;
61915;SDS011;47868;51.326;6.550;2022-08-11T16:41:23;6.20;;;2.60;;
61915;SDS011;47868;51.326;6.550;2022-08-11T16:44:10;5.70;;;2.70;;
61915;SDS011;47868;51.326;6.550;2022-08-11T16:46:57;4.32;;;2.70;;
61915;SDS011;47868;51.326;6.550;2022-08-11T16:49:38;7.18;;;2.72;;
61915;SDS011;47868;51.326;6.550;2022-08-11T16:52:10;4.13;;;2.83;;
61915;SDS011;47868;51.326;6.550;2022-08-11T16:54:37;16.63;;;3.00;;
61915;SDS011;47868;51.326;6.550;2022-08-11T16:57:09;6.63;;;2.67;;
61915;SDS011;47868;51.326;6.550;2022-08-11T16:59:57;7.43;;;2.55;;
61915;SDS011;47868;51.326;6.550;2022-08-11T17:02:26;4.28;;;2.75;;
61915;SDS011;47868;51.326;6.550;2022-08-11T17:05:16;7.75;;;2.50;;
61915;SDS011;47868;51.326;6.550;2022-08-11T17:08:04;9.85;;;2.90;;
61915;SDS011;47868;51.326;6.550;2022-08-11T17:10:58;8.40;;;3.22;;
61915;SDS011;47868;51.326;6.550;2022-08-11T17:13:49;10.00;;;2.90;;
61915;SDS011;47868;51.326;6.550;2022-08-11T17:16:25;6.90;;;2.67;;
61915;SDS011;47868;51.326;6.550;2022-08-11T17:19:19;5.65;;;2.50;;
61915;SDS011;47868;51.326;6.550;2022-08-11T17:21:52;12.30;;;2.70;;
61915;SDS011;47868;51.326;6.550;2022-08-11T17:24:45;4.95;;;2.88;;
61915;SDS011;47868;51.326;6.550;2022-08-11T17:27:15;6.25;;;2.88;;
61915;SDS011;47868;51.326;6.550;2022-08-11T17:32:12;4.72;;;2.53;;
61915;SDS011;47868;51.326;6.550;2022-08-11T17:35:16;3.30;;;3.00;;
61915;SDS011;47868;51.326;6.550;2022-08-11T17:40:38;5.32;;;2.90;;
61915;SDS011;47868;51.326;6.550;2022-08-11T17:43:25;4.93;;;2.78;;
61915;SDS011;47868;51.326;6.550;2022-08-11T17:46:11;3.75;;;2.88;;
61915;SDS011;47868;51.326;6.550;2022-08-11T17:48:57;7.85;;;3.20;;
61915;SDS011;47868;51.326;6.550;2022-08-11T17:51:24;4.85;;;2.92;;
61915;SDS011;47868;51.326;6.550;2022-08-11T17:54:08;7.80;;;2.78;;
61915;SDS011;47868;51.326;6.550;2022-08-11T17:56:54;3.53;;;2.78;;
61915;SDS011;47868;51.326;6.550;2022-08-11T17:59:38;4.72;;;2.75;;
61915;SDS011;47868;51.326;6.550;2022-08-11T18:02:18;9.98;;;3.08;;
61915;SDS011;47868;51.326;6.550;2022-08-11T18:05:11;5.00;;;3.20;;
61915;SDS011;47868;51.326;6.550;2022-08-11T18:07:39;4.20;;;2.80;;
61915;SDS011;47868;51.326;6.550;2022-08-11T18:10:25;5.68;;;2.72;;
61915;SDS011;47868;51.326;6.550;2022-08-11T18:13:11;5.13;;;3.08;;
61915;SDS011;47868;51.326;6.550;2022-08-11T18:15:57;4.32;;;2.78;;
61915;SDS011;47868;51.326;6.550;2022-08-11T18:18:41;4.50;;;2.60;;
61915;SDS011;47868;51.326;6.550;2022-08-11T18:21:26;7.63;;;3.25;;
61915;SDS011;47868;51.326;6.550;2022-08-11T18:24:13;9.70;;;3.13;;
61915;SDS011;47868;51.326;6.550;2022-08-11T18:26:59;4.45;;;2.78;;
61915;SDS011;47868;51.326;6.550;2022-08-11T18:29:47;6.75;;;3.10;;
61915;SDS011;47868;51.326;6.550;2022-08-11T18:32:35;8.02;;;3.42;;
61915;SDS011;47868;51.326;6.550;2022-08-11T18:35:22;3.60;;;3.00;;
61915;SDS011;47868;51.326;6.550;2022-08-11T18:38:09;3.20;;;2.90;;
61915;SDS011;47868;51.326;6.550;2022-08-11T18:40:56;6.28;;;3.78;;
61915;SDS011;47868;51.326;6.550;2022-08-11T18:43:42;5.88;;;3.55;;
61915;SDS011;47868;51.326;6.550;2022-08-11T18:46:32;3.35;;;3.08;;
61915;SDS011;47868;51.326;6.550;2022-08-11T18:49:21;5.60;;;3.30;;
61915;SDS011;47868;51.326;6.550;2022-08-11T18:52:08;9.80;;;3.40;;
61915;SDS011;47868;51.326;6.550;2022-08-11T18:54:56;7.65;;;3.78;;
61915;SDS011;47868;51.326;6.550;2022-08-11T18:57:44;7.10;;;3.10;;
61915;SDS011;47868;51.326;6.550;2022-08-11T19:00:31;3.75;;;3.22;;
61915;SDS011;47868;51.326;6.550;2022-08-11T19:03:18;5.63;;;3.38;;
61915;SDS011;47868;51.326;6.550;2022-08-11T19:06:05;7.60;;;3.53;;
61915;SDS011;47868;51.326;6.550;2022-08-11T19:08:51;6.55;;;3.20;;
61915;SDS011;47868;51.326;6.550;2022-08-11T19:11:39;8.48;;;3.60;;
61915;SDS011;47868;51.326;6.550;2022-08-11T19:14:25;8.52;;;3.88;;
61915;SDS011;47868;51.326;6.550;2022-08-11T19:17:12;4.82;;;3.50;;
61915;SDS011;47868;51.326;6.550;2022-08-11T19:19:58;5.32;;;3.40;;
61915;SDS011;47868;51.326;6.550;2022-08-11T19:22:45;8.65;;;3.38;;
61915;SDS011;47868;51.326;6.550;2022-08-11T19:25:31;5.72;;;3.22;;
61915;SDS011;47868;51.326;6.550;2022-08-11T19:28:17;3.97;;;3.40;;
61915;SDS011;47868;51.326;6.550;2022-08-11T19:31:04;7.15;;;3.60;;
61915;SDS011;47868;51.326;6.550;2022-08-11T19:33:56;5.55;;;3.78;;
61915;SDS011;47868;51.326;6.550;2022-08-11T19:36:41;12.02;;;3.65;;
61915;SDS011;47868;51.326;6.550;2022-08-11T19:39:27;7.45;;;3.80;;
61915;SDS011;47868;51.326;6.550;2022-08-11T19:42:13;7.43;;;4.13;;
61915;SDS011;47868;51.326;6.550;2022-08-11T19:44:58;9.20;;;4.97;;
61915;SDS011;47868;51.326;6.550;2022-08-11T19:47:45;12.27;;;4.78;;